Terminal Aerodrome Forecast
Issued by NWS

Home | Current Version | Previous Version | Text Only | Print | Product List | Glossary Off
Versions: 1 2 3 4 5 6 7 8 9 10 11 12 13 14 15 16 17 18 19 20 21 22

158
FTUS43 KBIS 270307 AAC
TAFJMS
TAF AMD
KJMS 270307Z 2703/2724 04007KT P6SM VCTS SCT040 BKN070CB
      TEMPO 2703/2705 34015G25KT 2SM TSRA OVC020CB
     FM270500 02007KT P6SM BKN040
     FM271400 02009KT P6SM SCT120=

USA.gov is the U.S. government's official web portal to all federal, state and local government web resources and services.